Nova Laranjeiras, Brazil
Current Conditions -  °F | °C
As of 3:00 PM on Friday 24 Oct 2014 (Local Time) from SBCA Reporting Station
Scattered Clouds Scattered Clouds  
Wind Chill: 84°   Ceiling: Unl
Heat Index: 86°   Visibility: 6mi
Dew Point: 66°   Wind: 18mph
Humidity: 55%   Direction: 310°NW
Pressure: 29.97"   Gusts: NA
Location:  25.31°S, 52.54°W
Report Text: SBCA 241700Z 31016KT 9999 SCT040 FEW045TCU 29/19 Q1015
Loading
Personal Weather Stations






























Interactive Weather Map
Tropical Storm Tracking
New forecast layout! Learn more

10-Day Weather Forecast

Advertisements
Track Severe Weather on mobile